Northumberland Strait - eastern half: Past 24 Hour Conditions

 

Grand Étang

10:00 AM ADT 22 September 2014
This table is a summary of hourly weather conditions for the past 24 hours.
Date / Time
(ADT)
Wind(knots) Conditions Visibility(km) Pressure(kPa) Air tempC) Relative humidity(%) Dew pointC) Humidex
22 September 2014
10:00 SW 31 gust 38 N/A N/A 99.4 22 83 19 29
9:00 SSE 25 gust 41 N/A N/A 99.4 23 85 20 31
8:00 SE 27 gust 46 N/A N/A 99.5 22 85 19 29
7:00 SSE 25 gust 44 N/A N/A 99.7 22 85 19 29
6:00 SSE 27 gust 40 N/A N/A 99.9 22 84 19 28
5:00 SSE 23 gust 38 N/A N/A 100.1 21 86 19 28
4:00 SSE 17 gust 30 N/A N/A 100.2 21 85 19 28
3:00 SSE 19 gust 32 N/A N/A 100.5 21 85 19 28
2:00 SSE 16 gust 28 N/A N/A 100.7 22 86 19 29
1:00 ESE 13 gust 19 N/A N/A 100.9 20 88 18 *
0:00 SSE 11 gust 18 N/A N/A 101.1 21 85 19 28
21 September 2014
23:00 S 10 gust 19 N/A N/A 101.3 21 85 19 28
22:00 SSE 11 gust 17 N/A N/A 101.4 22 81 18 28
21:00 SSE 14 gust 21 N/A N/A 101.4 22 77 18 27
20:00 SSE 12 gust 17 N/A N/A 101.5 22 72 17 27
19:00 S 13 gust 18 N/A N/A 101.4 22 65 15 26
18:00 S 13 gust 26 N/A N/A 101.4 24 52 13 27
17:00 S 13 gust 22 N/A N/A 101.4 25 50 14 28
16:00 SSW 13 gust 19 N/A N/A 101.5 25 52 14 29
15:00 S 14 gust 21 N/A N/A 101.5 25 50 14 29
14:00 SSW 15 gust 22 N/A N/A 101.5 24 53 14 27
13:00 S 17 gust 25 N/A N/A 101.6 24 52 13 26
12:00 S 15 gust 22 N/A N/A 101.6 23 53 12 25
11:00 SSW 18 gust 25 N/A N/A 101.7 21 56 12 *
10:00 S 15 gust 21 N/A N/A 101.7 19 63 12 *
 
Map of Atlantic - Newfoundland marine weather areas Southwestern Grand Banks - 44138 Banquereau - 44139 Tail of the Bank - 44140 Nickerson Bank - 44251 Northeast Burgeo Bank - 44255 Blanc-Sablon Airport Cap Whittle Chevery Natashquan Airport Heath Point Miscou Island Grand Étang Ingonish Beach North Mountain St.Paul Island J.A. Douglas McCurdy Sydney Airport Charlottetown Airport East Point North Cape Argentia Bonavista Burgeo Cape Race Corner Brook Daniel's Harbour Englee Ferolle Point La Scie Port aux Basques Rocky Harbour Sagona Island St. Anthony Airport St. John's Int'l Airport St. Lawrence Stephenville Airport Twillingate Winterland Wreckhouse Cartwright Airport Mary's Harbour Grates Cove Pool's Island Marticot Island Long Pond Îles de la Madeleine Airport
Legend: buoyBuoy land stationLand Station